createdAt,value
2023-02-28T00:01:07.400Z,102404.66
2023-02-28T00:03:36.184Z,102404.88
2023-02-28T00:06:07.448Z,102405.00
2023-02-28T00:08:34.601Z,102403.47
2023-02-28T00:11:05.992Z,102408.03
2023-02-28T00:13:32.572Z,102406.44
2023-02-28T00:16:07.753Z,102408.38
2023-02-28T00:18:34.126Z,102406.69
2023-02-28T00:21:00.694Z,102398.88
2023-02-28T00:23:28.347Z,102409.53
2023-02-28T00:25:54.775Z,102413.97
2023-02-28T00:28:21.720Z,102406.97
2023-02-28T00:30:48.485Z,102400.81
2023-02-28T00:33:15.188Z,102410.53
2023-02-28T00:35:41.588Z,102408.75
2023-02-28T00:38:07.998Z,102406.97
2023-02-28T00:40:34.399Z,102399.94
2023-02-28T00:43:00.851Z,102401.66
2023-02-28T00:45:27.279Z,102406.09
2023-02-28T00:47:53.705Z,102405.16
2023-02-28T00:50:21.164Z,102387.47
2023-02-28T00:52:48.752Z,102391.00
2023-02-28T00:55:15.780Z,102383.94
2023-02-28T00:57:42.228Z,102383.00
2023-02-28T01:00:10.586Z,102389.09
2023-02-28T01:02:37.017Z,102389.94
2023-02-28T01:05:04.123Z,102388.25
2023-02-28T01:07:30.788Z,102386.50
2023-02-28T01:09:57.115Z,102388.28
2023-02-28T01:12:23.432Z,102386.63
2023-02-28T01:14:49.825Z,102389.31
2023-02-28T01:17:16.170Z,102392.06
2023-02-28T01:19:43.450Z,102396.56
2023-02-28T01:22:09.928Z,102389.53
2023-02-28T01:24:36.329Z,102392.25
2023-02-28T01:27:03.222Z,102394.94
2023-02-28T01:29:29.635Z,102391.44
2023-02-28T01:31:56.320Z,102393.28
2023-02-28T01:34:22.721Z,102398.56
2023-02-28T01:36:49.140Z,102390.63
2023-02-28T01:39:15.626Z,102395.03
2023-02-28T01:41:42.050Z,102386.13
2023-02-28T01:44:46.660Z,102386.94
2023-02-28T01:47:13.210Z,102378.94
2023-02-28T01:49:40.365Z,102379.72
2023-02-28T01:52:07.925Z,102376.09
2023-02-28T01:54:35.881Z,102376.03
2023-02-28T01:57:06.917Z,102373.34
2023-02-28T01:59:39.302Z,102382.06
2023-02-28T02:02:05.850Z,102380.22
2023-02-28T02:04:41.033Z,102374.84
2023-02-28T02:07:07.893Z,102383.59
2023-02-28T02:09:34.314Z,102384.47
2023-02-28T02:12:13.767Z,102375.59
2023-02-28T02:14:57.733Z,102370.28
2023-02-28T02:17:36.398Z,102372.94
2023-02-28T02:20:33.657Z,102370.28
2023-02-28T02:23:00.023Z,102375.63
2023-02-28T02:25:34.160Z,102370.47
2023-02-28T02:28:18.500Z,102375.84
2023-02-28T02:30:54.789Z,102374.25
2023-02-28T02:33:59.924Z,102378.81
2023-02-28T02:36:58.619Z,102371.09
2023-02-28T02:39:52.606Z,102374.94
2023-02-28T02:42:30.389Z,102375.25
2023-02-28T02:45:02.127Z,102382.56
2023-02-28T02:47:31.952Z,102382.84
2023-02-28T02:50:02.082Z,102382.28
2023-02-28T02:52:37.634Z,102387.88
2023-02-28T02:55:04.983Z,102384.41
2023-02-28T02:57:37.984Z,102387.31
2023-02-28T03:00:08.805Z,102391.06
2023-02-28T03:02:38.815Z,102386.91
2023-02-28T03:05:18.045Z,102387.94
2023-02-28T03:07:44.513Z,102382.84
2023-02-28T03:10:30.802Z,102382.03
2023-02-28T03:13:11.652Z,102382.16
2023-02-28T03:15:53.018Z,102382.28
2023-02-28T03:18:46.944Z,102388.56
2023-02-28T03:21:28.850Z,102385.94
2023-02-28T03:24:10.220Z,102391.34
2023-02-28T03:26:43.925Z,102385.28
2023-02-28T03:29:35.011Z,102389.81
2023-02-28T03:32:34.943Z,102395.13
2023-02-28T03:35:13.344Z,102401.34
2023-02-28T03:37:43.370Z,102399.56
2023-02-28T03:40:14.113Z,102393.44
2023-02-28T03:42:43.922Z,102395.13
2023-02-28T03:45:16.562Z,102395.13
2023-02-28T03:47:50.739Z,102396.94
2023-02-28T03:50:20.025Z,102393.44
2023-02-28T03:53:05.610Z,102390.78
2023-02-28T03:55:41.172Z,102390.81
2023-02-28T03:58:26.162Z,102388.13
2023-02-28T04:00:59.921Z,102386.41
2023-02-28T04:03:26.347Z,102385.66
2023-02-28T04:05:55.683Z,102388.34
2023-02-28T04:08:23.351Z,102390.22
2023-02-28T04:10:57.141Z,102391.09
2023-02-28T04:13:23.631Z,102389.41
2023-02-28T04:15:50.012Z,102388.56
2023-02-28T04:18:16.457Z,102392.16
2023-02-28T04:20:42.891Z,102394.84
2023-02-28T04:23:09.324Z,102394.03
2023-02-28T04:25:35.730Z,102389.66
2023-02-28T04:28:02.169Z,102391.50
2023-02-28T04:30:28.529Z,102389.81
2023-02-28T04:32:55.048Z,102385.50
2023-02-28T04:35:21.423Z,102390.88
2023-02-28T04:37:47.739Z,102398.00
2023-02-28T04:40:14.370Z,102394.53
2023-02-28T04:42:40.769Z,102395.50
2023-02-28T04:45:07.920Z,102393.00
2023-02-28T04:47:34.263Z,102392.22
2023-02-28T04:50:00.611Z,102392.31
2023-02-28T04:52:28.836Z,102392.41
2023-02-28T04:54:55.412Z,102394.34
2023-02-28T04:57:21.721Z,102404.16
2023-02-28T04:59:48.069Z,102399.88
2023-02-28T05:02:14.613Z,102398.19
2023-02-28T05:04:41.190Z,102400.88
2023-02-28T05:07:07.610Z,102397.47
2023-02-28T05:09:34.286Z,102402.81
2023-02-28T05:12:00.849Z,102401.09
2023-02-28T05:14:27.391Z,102403.78
2023-02-28T05:16:53.828Z,102404.69
2023-02-28T05:19:22.164Z,102403.88
2023-02-28T05:21:53.848Z,102414.44
2023-02-28T05:24:23.617Z,102411.03
2023-02-28T05:26:52.970Z,102414.53
2023-02-28T05:29:20.128Z,102404.84
2023-02-28T05:31:46.620Z,102410.09
2023-02-28T05:34:13.532Z,102417.91
2023-02-28T05:36:40.175Z,102418.66
2023-02-28T05:39:08.427Z,102424.66
2023-02-28T05:41:34.842Z,102422.72
2023-02-28T05:44:01.615Z,102427.84
2023-02-28T05:46:28.039Z,102426.78
2023-02-28T05:48:54.639Z,102424.84
2023-02-28T05:51:21.123Z,102426.34
2023-02-28T05:53:49.223Z,102430.56
2023-02-28T05:56:15.712Z,102428.63
2023-02-28T05:58:42.224Z,102424.03
2023-02-28T06:01:36.347Z,102427.38
2023-02-28T06:04:04.930Z,102430.75
2023-02-28T06:06:31.413Z,102430.75
2023-02-28T06:08:58.344Z,102425.56
2023-02-28T06:11:28.371Z,102422.94
2023-02-28T06:14:00.792Z,102422.13
2023-02-28T06:16:29.132Z,102427.53
2023-02-28T06:18:57.563Z,102426.78
2023-02-28T06:21:24.108Z,102424.31
2023-02-28T06:23:51.032Z,102428.03
2023-02-28T06:26:17.943Z,102429.94
2023-02-28T06:28:44.466Z,102429.22
2023-02-28T06:31:12.717Z,102426.66
2023-02-28T06:33:40.372Z,102427.63
2023-02-28T06:36:08.045Z,102429.63
2023-02-28T06:38:34.758Z,102432.38
2023-02-28T06:41:01.965Z,102429.84
2023-02-28T06:43:30.642Z,102428.22
2023-02-28T06:45:59.518Z,102435.28
2023-02-28T06:48:27.657Z,102441.53
2023-02-28T06:51:06.285Z,102442.44
2023-02-28T06:53:33.545Z,102436.25
2023-02-28T06:56:00.096Z,102445.03
2023-02-28T06:58:26.508Z,102454.63
2023-02-28T07:00:53.693Z,102453.63
2023-02-28T07:03:20.629Z,102450.88
2023-02-28T07:05:46.999Z,102455.03
2023-02-28T07:08:13.430Z,102455.72
2023-02-28T07:10:40.549Z,102453.75
2023-02-28T07:13:08.487Z,102459.69
2023-02-28T07:15:37.649Z,102454.19
2023-02-28T07:18:05.758Z,102458.41
2023-02-28T07:20:32.258Z,102461.75
2023-02-28T07:22:58.743Z,102455.38
2023-02-28T07:25:27.533Z,102455.16
2023-02-28T07:27:54.770Z,102459.34
2023-02-28T07:30:21.748Z,102453.84
2023-02-28T07:32:48.595Z,102457.13
2023-02-28T07:35:16.245Z,102455.13
2023-02-28T07:37:43.492Z,102464.50
2023-02-28T07:40:15.249Z,102462.44
2023-02-28T07:42:42.741Z,102469.19
2023-02-28T07:45:12.575Z,102470.59
2023-02-28T07:47:39.890Z,102475.53
2023-02-28T07:50:08.055Z,102468.16
2023-02-28T07:52:34.584Z,102472.13
2023-02-28T07:55:01.029Z,102471.75
2023-02-28T07:57:27.451Z,102466.94
2023-02-28T07:59:53.888Z,102472.78
2023-02-28T08:02:20.432Z,102469.78
2023-02-28T08:04:46.895Z,102465.88
2023-02-28T08:07:14.347Z,102470.03
2023-02-28T08:09:41.788Z,102473.25
2023-02-28T08:12:09.038Z,102472.09
2023-02-28T08:14:35.877Z,102470.09
2023-02-28T08:17:02.779Z,102473.34
2023-02-28T08:19:29.670Z,102478.47
2023-02-28T08:21:56.418Z,102476.47
2023-02-28T08:24:23.465Z,102468.28
2023-02-28T08:26:51.134Z,102468.00
2023-02-28T08:29:17.773Z,102470.38
2023-02-28T08:31:44.447Z,102478.09
2023-02-28T08:34:13.352Z,102478.66
2023-02-28T08:36:40.528Z,102485.47
2023-02-28T08:39:07.869Z,102471.03
2023-02-28T08:41:34.541Z,102475.19
2023-02-28T08:44:01.207Z,102470.47
2023-02-28T08:46:27.604Z,102474.56
2023-02-28T08:48:56.084Z,102472.50
2023-02-28T08:51:27.577Z,102477.50
2023-02-28T08:54:01.698Z,102476.22
2023-02-28T08:56:29.179Z,102472.44
2023-02-28T08:58:57.545Z,102480.13
2023-02-28T09:01:28.301Z,102478.91
2023-02-28T09:06:28.320Z,102481.91
2023-02-28T09:08:59.346Z,102479.78
2023-02-28T09:11:26.049Z,102488.34
2023-02-28T09:13:52.576Z,102475.69
2023-02-28T09:16:20.251Z,102476.34
2023-02-28T09:18:46.783Z,102471.56
2023-02-28T09:21:16.128Z,102474.88
2023-02-28T09:23:43.668Z,102479.00
2023-02-28T09:26:19.414Z,102478.72
2023-02-28T09:28:45.742Z,102476.56
2023-02-28T09:31:16.525Z,102474.38
2023-02-28T09:33:43.405Z,102475.06
2023-02-28T09:36:09.976Z,102476.63
2023-02-28T09:38:36.764Z,102471.16
2023-02-28T09:41:16.345Z,102474.50
2023-02-28T09:43:47.899Z,102469.91
2023-02-28T09:46:33.092Z,102476.78
2023-02-28T09:49:02.763Z,102470.38
2023-02-28T09:51:38.854Z,102471.91
2023-02-28T09:54:05.846Z,102480.53
2023-02-28T09:56:39.904Z,102476.72
2023-02-28T09:59:24.859Z,102477.19
2023-02-28T10:02:12.707Z,102472.38
2023-02-28T10:04:56.123Z,102476.50
2023-02-28T10:07:35.365Z,102474.47
2023-02-28T10:10:06.831Z,102482.22
2023-02-28T10:12:34.425Z,102474.06
2023-02-28T10:15:03.373Z,102476.56
2023-02-28T10:17:54.743Z,102473.56
2023-02-28T10:20:30.660Z,102461.63
2023-02-28T10:23:13.972Z,102468.38
2023-02-28T10:25:40.843Z,102473.47
2023-02-28T10:28:11.611Z,102479.31
2023-02-28T10:30:44.607Z,102479.06
2023-02-28T10:33:25.514Z,102478.72
2023-02-28T10:35:53.337Z,102481.06
2023-02-28T10:38:24.414Z,102477.19
2023-02-28T10:40:51.701Z,102470.66
2023-02-28T10:43:22.077Z,102462.22
2023-02-28T10:46:13.424Z,102462.75
2023-02-28T10:48:44.230Z,102464.19
2023-02-28T10:51:16.764Z,102470.13
2023-02-28T10:54:01.365Z,102463.59
2023-02-28T10:56:28.543Z,102467.94
2023-02-28T10:59:27.873Z,102464.25
2023-02-28T11:01:54.476Z,102444.63
2023-02-28T11:04:23.942Z,102452.47
2023-02-28T11:07:02.629Z,102452.28
2023-02-28T11:09:34.497Z,102452.97
2023-02-28T11:12:02.089Z,102451.00
2023-02-28T11:14:32.156Z,102448.03
2023-02-28T11:17:12.550Z,102445.16
2023-02-28T11:19:48.010Z,102445.88
2023-02-28T11:22:21.677Z,102443.78
2023-02-28T11:24:53.042Z,102437.31
2023-02-28T11:27:31.531Z,102432.56
2023-02-28T11:29:59.631Z,102440.38
2023-02-28T11:32:31.573Z,102428.66
2023-02-28T11:35:11.518Z,102428.50
2023-02-28T11:37:39.803Z,102431.81
2023-02-28T11:40:14.862Z,102440.41
2023-02-28T11:43:14.339Z,102431.09
2023-02-28T11:45:50.430Z,102423.53
2023-02-28T11:48:24.726Z,102427.44
2023-02-28T11:51:09.618Z,102438.63
2023-02-28T11:53:42.550Z,102425.84
2023-02-28T11:56:24.081Z,102417.38
2023-02-28T11:59:15.421Z,102415.06
2023-02-28T12:01:55.668Z,102417.47
2023-02-28T12:04:46.619Z,102410.84
2023-02-28T12:07:18.721Z,102409.59
2023-02-28T12:10:13.780Z,102396.81
2023-02-28T12:12:49.691Z,102387.63
2023-02-28T12:15:46.824Z,102390.84
2023-02-28T12:18:38.518Z,102397.66
2023-02-28T12:21:26.444Z,102394.78
2023-02-28T12:24:11.653Z,102380.44
2023-02-28T12:26:42.137Z,102382.25
2023-02-28T12:29:27.059Z,102377.00
2023-02-28T12:32:08.504Z,102374.44
2023-02-28T12:34:47.110Z,102371.00
2023-02-28T12:37:30.371Z,102363.19
2023-02-28T12:40:06.573Z,102357.09
2023-02-28T12:42:37.886Z,102356.22
2023-02-28T12:45:13.469Z,102352.78
2023-02-28T12:47:43.820Z,102351.09
2023-02-28T12:50:12.638Z,102351.09
2023-02-28T12:53:01.281Z,102343.25
2023-02-28T12:55:49.620Z,102348.59
2023-02-28T12:58:30.358Z,102351.19
2023-02-28T13:01:16.727Z,102336.75
2023-02-28T13:03:49.191Z,102336.56
2023-02-28T13:06:33.687Z,102337.22
2023-02-28T13:09:16.554Z,102334.44
2023-02-28T13:11:48.943Z,102335.28
2023-02-28T13:14:27.922Z,102334.44
2023-02-28T13:16:57.775Z,102331.75
2023-02-28T13:19:27.566Z,102325.34
2023-02-28T13:21:54.606Z,102326.22
2023-02-28T13:24:45.915Z,102312.63
2023-02-28T13:27:26.214Z,102315.13
2023-02-28T13:29:53.796Z,102327.53
2023-02-28T13:32:30.934Z,102329.06
2023-02-28T13:34:57.257Z,102317.38
2023-02-28T13:37:24.034Z,102314.50
2023-02-28T13:39:51.954Z,102320.50
2023-02-28T13:42:38.085Z,102313.13
2023-02-28T13:45:04.699Z,102327.28
2023-02-28T13:47:47.720Z,102327.94
2023-02-28T13:50:34.569Z,102332.22
2023-02-28T13:53:20.448Z,102321.31
2023-02-28T13:56:11.020Z,102322.94
2023-02-28T13:58:55.394Z,102315.75
2023-02-28T14:02:00.032Z,102330.94
2023-02-28T14:04:49.495Z,102326.78
2023-02-28T14:07:26.474Z,102325.34
2023-02-28T14:10:06.231Z,102325.75
2023-02-28T14:12:55.928Z,102320.81
2023-02-28T14:15:25.328Z,102312.25
2023-02-28T14:17:57.365Z,102309.78
2023-02-28T14:20:28.542Z,102317.03
2023-02-28T14:23:07.837Z,102318.88
2023-02-28T14:25:52.711Z,102311.78
2023-02-28T14:28:56.928Z,102309.03
2023-02-28T14:31:34.359Z,102302.81
2023-02-28T14:34:06.814Z,102301.09
2023-02-28T14:36:41.013Z,102295.88
2023-02-28T14:39:11.947Z,102294.03
2023-02-28T14:41:41.479Z,102294.88
2023-02-28T14:44:13.958Z,102284.13
2023-02-28T14:46:42.934Z,102290.19
2023-02-28T14:49:42.738Z,102283.78
2023-02-28T14:52:24.148Z,102277.38
2023-02-28T14:54:56.816Z,102277.28
2023-02-28T14:57:31.539Z,102287.88
2023-02-28T15:00:11.912Z,102284.44
2023-02-28T15:02:39.763Z,102278.25
2023-02-28T15:05:17.578Z,102283.78
2023-02-28T15:07:48.945Z,102280.38
2023-02-28T15:10:18.650Z,102282.38
2023-02-28T15:12:52.017Z,102292.44
2023-02-28T15:15:19.604Z,102287.28
2023-02-28T15:17:50.351Z,102287.38
2023-02-28T15:20:17.570Z,102289.28
2023-02-28T15:22:46.499Z,102282.34
2023-02-28T15:25:18.541Z,102286.81
2023-02-28T15:27:51.824Z,102282.53
2023-02-28T15:30:26.877Z,102288.75
2023-02-28T15:33:21.651Z,102288.00
2023-02-28T15:35:49.154Z,102289.91
2023-02-28T15:38:21.293Z,102281.25
2023-02-28T15:41:09.146Z,102291.19
2023-02-28T15:43:38.135Z,102289.66
2023-02-28T15:46:08.459Z,102290.84
2023-02-28T15:48:45.441Z,102294.56
2023-02-28T15:51:35.456Z,102298.38
2023-02-28T15:54:06.385Z,102302.09
2023-02-28T15:56:39.961Z,102296.97
2023-02-28T15:59:13.856Z,102306.88
2023-02-28T16:01:40.655Z,102304.41
2023-02-28T16:04:15.852Z,102301.09
2023-02-28T16:06:58.442Z,102308.22
2023-02-28T16:09:24.793Z,102302.22
2023-02-28T16:11:55.505Z,102302.34
2023-02-28T16:14:24.835Z,102302.44
2023-02-28T16:16:53.823Z,102305.31
2023-02-28T16:19:20.884Z,102304.44
2023-02-28T16:21:47.879Z,102307.22
2023-02-28T16:24:14.593Z,102309.03
2023-02-28T16:26:42.441Z,102302.91
2023-02-28T16:29:14.455Z,102310.16
2023-02-28T16:31:40.860Z,102304.06
2023-02-28T16:34:07.580Z,102315.81
2023-02-28T16:36:33.913Z,102308.84
2023-02-28T16:39:00.331Z,102316.09
2023-02-28T16:41:29.291Z,102315.41
2023-02-28T16:44:01.012Z,102315.63
2023-02-28T16:46:37.160Z,102317.50
2023-02-28T16:49:03.658Z,102313.22
2023-02-28T16:51:31.388Z,102310.03
2023-02-28T16:53:58.695Z,102318.19
2023-02-28T16:56:26.017Z,102317.44
2023-02-28T16:59:00.554Z,102317.81
2023-02-28T17:01:28.855Z,102313.72
2023-02-28T17:03:55.583Z,102318.47
2023-02-28T17:06:26.655Z,102321.53
2023-02-28T17:08:53.277Z,102310.34
2023-02-28T17:11:20.135Z,102320.56
2023-02-28T17:13:48.413Z,102308.53
2023-02-28T17:16:33.622Z,102306.25
2023-02-28T17:19:02.981Z,102314.59
2023-02-28T17:21:29.814Z,102317.75
2023-02-28T17:23:56.904Z,102315.41
2023-02-28T17:26:25.843Z,102321.13
2023-02-28T17:28:55.885Z,102331.19
2023-02-28T17:31:23.165Z,102323.66
2023-02-28T17:33:49.696Z,102323.13
2023-02-28T17:36:19.006Z,102330.56
2023-02-28T17:38:45.361Z,102336.22
2023-02-28T17:41:12.390Z,102342.75
2023-02-28T17:43:39.238Z,102348.34
2023-02-28T17:46:06.786Z,102347.81
2023-02-28T17:48:34.615Z,102348.06
2023-02-28T17:51:00.993Z,102349.28
2023-02-28T17:53:28.065Z,102356.66
2023-02-28T17:55:54.469Z,102356.06
2023-02-28T17:58:20.918Z,102357.16
2023-02-28T18:00:48.671Z,102361.00
2023-02-28T18:03:15.066Z,102363.00
2023-02-28T18:05:41.632Z,102364.19
2023-02-28T18:08:11.962Z,102359.97
2023-02-28T18:10:38.328Z,102364.66
2023-02-28T18:13:04.729Z,102362.19
2023-02-28T18:15:31.141Z,102364.22
2023-02-28T18:17:57.706Z,102365.34
2023-02-28T18:20:24.137Z,102367.41
2023-02-28T18:22:50.572Z,102359.66
2023-02-28T18:25:17.917Z,102364.28
2023-02-28T18:27:53.926Z,102357.41
2023-02-28T18:30:21.547Z,102368.22
2023-02-28T18:32:48.080Z,102366.63
2023-02-28T18:35:14.455Z,102360.63
2023-02-28T18:37:40.922Z,102359.06
2023-02-28T18:40:07.988Z,102358.38
2023-02-28T18:42:34.367Z,102358.53
2023-02-28T18:45:00.737Z,102357.84
2023-02-28T18:47:27.075Z,102366.03
2023-02-28T18:49:53.469Z,102357.44
2023-02-28T18:52:19.836Z,102358.69
2023-02-28T18:54:46.579Z,102358.06
2023-02-28T18:57:13.034Z,102357.59
2023-02-28T18:59:39.371Z,102360.56
2023-02-28T19:02:06.233Z,102358.38
2023-02-28T19:04:33.191Z,102359.59
2023-02-28T19:06:59.686Z,102357.41
2023-02-28T19:09:26.131Z,102353.41
2023-02-28T19:11:52.464Z,102352.94
2023-02-28T19:14:20.234Z,102349.69
2023-02-28T19:16:47.282Z,102352.72
2023-02-28T19:19:13.898Z,102351.22
2023-02-28T19:21:40.265Z,102355.91
2023-02-28T19:24:06.698Z,102353.53
2023-02-28T19:26:33.221Z,102358.13
2023-02-28T19:29:03.434Z,102364.56
2023-02-28T19:31:30.060Z,102364.03
2023-02-28T19:33:58.954Z,102358.97
2023-02-28T19:36:25.391Z,102362.72
2023-02-28T19:38:51.810Z,102358.56
2023-02-28T19:41:19.180Z,102365.88
2023-02-28T19:43:45.903Z,102368.72
2023-02-28T19:46:13.438Z,102372.44
2023-02-28T19:48:40.742Z,102369.22
2023-02-28T19:51:10.154Z,102365.94
2023-02-28T19:53:38.520Z,102367.03
2023-02-28T19:56:05.674Z,102366.44
2023-02-28T19:58:33.009Z,102379.84
2023-02-28T20:01:07.093Z,102379.97
2023-02-28T20:03:33.568Z,102371.34
2023-02-28T20:06:02.367Z,102376.78
2023-02-28T20:08:29.030Z,102377.78
2023-02-28T20:10:55.415Z,102379.72
2023-02-28T20:13:25.894Z,102373.63
2023-02-28T20:15:54.626Z,102375.47
2023-02-28T20:18:20.993Z,102371.16
2023-02-28T20:20:47.410Z,102373.09
2023-02-28T20:23:13.765Z,102371.44
2023-02-28T20:25:40.810Z,102373.34
2023-02-28T20:28:07.239Z,102375.25
2023-02-28T20:30:33.681Z,102378.09
2023-02-28T20:33:00.329Z,102379.16
2023-02-28T20:35:26.758Z,102379.28
2023-02-28T20:37:53.313Z,102381.19
2023-02-28T20:40:19.713Z,102382.19
2023-02-28T20:42:46.109Z,102381.34
2023-02-28T20:45:12.481Z,102388.47
2023-02-28T20:47:38.914Z,102391.97
2023-02-28T20:50:05.801Z,102385.78
2023-02-28T20:52:32.220Z,102386.56
2023-02-28T20:54:58.611Z,102391.78
2023-02-28T20:57:25.013Z,102396.09
2023-02-28T20:59:51.391Z,102396.91
2023-02-28T21:02:18.980Z,102392.41
2023-02-28T21:04:45.506Z,102394.13
2023-02-28T21:07:11.860Z,102391.44
2023-02-28T21:09:38.213Z,102393.13
2023-02-28T21:12:04.617Z,102399.28
2023-02-28T21:14:32.084Z,102396.63
2023-02-28T21:16:58.421Z,102402.88
2023-02-28T21:19:24.831Z,102402.03
2023-02-28T21:21:51.381Z,102396.72
2023-02-28T21:24:19.468Z,102403.78
2023-02-28T21:26:47.253Z,102397.72
2023-02-28T21:29:14.755Z,102402.22
2023-02-28T21:31:41.212Z,102405.75
2023-02-28T21:34:09.311Z,102417.28
2023-02-28T21:36:39.539Z,102419.13
2023-02-28T21:39:09.964Z,102413.06
2023-02-28T21:41:36.546Z,102412.25
2023-02-28T21:44:03.474Z,102415.78
2023-02-28T21:46:30.802Z,102406.97
2023-02-28T21:48:57.781Z,102407.88
2023-02-28T21:51:27.667Z,102398.22
2023-02-28T21:53:54.401Z,102401.78
2023-02-28T21:56:24.341Z,102400.91
2023-02-28T21:58:51.711Z,102400.06
2023-02-28T22:01:21.082Z,102401.00
2023-02-28T22:03:49.285Z,102397.53
2023-02-28T22:06:19.027Z,102398.47
2023-02-28T22:08:48.761Z,102392.38
2023-02-28T22:11:16.655Z,102400.44
2023-02-28T22:13:44.216Z,102397.03
2023-02-28T22:16:17.548Z,102398.03
2023-02-28T22:18:44.341Z,102399.09
2023-02-28T22:21:12.211Z,102395.81
2023-02-28T22:23:40.096Z,102399.56
2023-02-28T22:26:09.957Z,102397.19
2023-02-28T22:28:37.193Z,102391.31
2023-02-28T22:31:24.719Z,102393.41
2023-02-28T22:33:53.491Z,102396.22
2023-02-28T22:36:20.987Z,102398.22
2023-02-28T22:38:49.067Z,102386.09
2023-02-28T22:41:15.897Z,102393.31
2023-02-28T22:43:43.965Z,102398.75
2023-02-28T22:46:13.038Z,102400.69
2023-02-28T22:48:39.767Z,102397.34
2023-02-28T22:51:14.793Z,102395.66
2023-02-28T22:53:42.973Z,102406.28
2023-02-28T22:56:14.951Z,102414.22
2023-02-28T22:58:41.470Z,102414.22
2023-02-28T23:01:15.607Z,102411.59
2023-02-28T23:03:43.086Z,102411.59
2023-02-28T23:06:20.519Z,102408.91
2023-02-28T23:08:47.510Z,102414.19
2023-02-28T23:11:19.950Z,102416.88
2023-02-28T23:13:58.172Z,102426.56
2023-02-28T23:16:30.404Z,102418.69
2023-02-28T23:18:58.010Z,102420.56
2023-02-28T23:21:24.869Z,102412.63
2023-02-28T23:23:51.595Z,102426.75
2023-02-28T23:26:17.929Z,102420.59
2023-02-28T23:28:44.321Z,102419.78
2023-02-28T23:31:10.675Z,102419.00
2023-02-28T23:33:37.264Z,102414.69
2023-02-28T23:36:15.406Z,102408.63
2023-02-28T23:38:45.215Z,102409.72
2023-02-28T23:41:13.103Z,102403.75
2023-02-28T23:43:40.583Z,102403.03
2023-02-28T23:46:08.016Z,102405.00
2023-02-28T23:48:34.413Z,102405.13
2023-02-28T23:51:08.455Z,102403.53
2023-02-28T23:53:40.671Z,102408.09
2023-02-28T23:56:09.578Z,102405.59
2023-02-28T23:58:36.513Z,102403.00
